Time;durP1;ratioP1;P1;durP2;ratioP2;P2;SDS_P1;SDS_P2;PMS_P1;PMS_P2;Temp;Humidity;BMP_temperature;BMP_pressure;BME280_temperature;BME280_humidity;BME280_pressure;Samples;Min_cycle;Max_cycle;Signal;HPM_P1;HPM_P2
2022/06/14 00:01:13;;;;;;;5.82;2.95;;;12.70;99.90;;;;;;5071910;28;20124;-48
2022/06/14 00:03:44;;;;;;;9.48;2.78;;;12.60;99.90;;;;;;5073225;28;20037;-47
2022/06/14 00:06:21;;;;;;;9.23;3.30;;;12.60;99.90;;;;;;5073230;28;20041;-45
2022/06/14 00:08:47;;;;;;;7.60;2.95;;;12.50;99.90;;;;;;5073119;28;20049;-46
2022/06/14 00:11:23;;;;;;;11.18;2.97;;;12.60;99.90;;;;;;5072376;28;20111;-47
2022/06/14 00:13:50;;;;;;;11.07;3.50;;;12.50;99.90;;;;;;5072950;28;20044;-47
2022/06/14 00:16:17;;;;;;;9.15;3.50;;;12.50;99.90;;;;;;5073095;28;20104;-47
2022/06/14 00:18:42;;;;;;;8.80;3.40;;;12.50;99.90;;;;;;5073110;28;20040;-48
2022/06/14 00:21:08;;;;;;;8.05;2.90;;;12.30;99.90;;;;;;5072892;28;20593;-46
2022/06/14 00:23:34;;;;;;;9.80;3.58;;;12.40;99.90;;;;;;5072718;28;20048;-48
2022/06/14 00:26:02;;;;;;;7.93;2.92;;;12.40;99.90;;;;;;5072870;28;20048;-48
2022/06/14 00:28:30;;;;;;;8.55;3.40;;;12.40;99.90;;;;;;5072957;28;20109;-45
2022/06/14 00:30:59;;;;;;;9.10;3.55;;;12.30;99.90;;;;;;5072837;28;20522;-47
2022/06/14 00:33:25;;;;;;;9.43;3.53;;;12.30;99.90;;;;;;5055173;28;20032;-49
2022/06/14 00:36:05;;;;;;;12.45;3.08;;;12.20;99.90;;;;;;5072887;28;20048;-47
2022/06/14 00:38:33;;;;;;;9.45;3.30;;;12.10;99.90;;;;;;5072281;28;20043;-47
2022/06/14 00:41:00;;;;;;;9.57;3.60;;;12.20;99.90;;;;;;5071667;28;20044;-46
2022/06/14 00:43:27;;;;;;;11.10;3.60;;;12.20;99.90;;;;;;5073006;28;20052;-46
2022/06/14 00:45:53;;;;;;;8.25;3.00;;;12.10;99.90;;;;;;5072339;28;20076;-48
2022/06/14 00:48:26;;;;;;;11.10;3.38;;;12.10;99.90;;;;;;5072825;28;20540;-49
2022/06/14 00:51:14;;;;;;;10.45;2.92;;;12.00;99.90;;;;;;5072309;28;20032;-49
2022/06/14 00:53:53;;;;;;;7.60;2.92;;;11.90;99.90;;;;;;5072445;28;20045;-48
2022/06/14 00:56:47;;;;;;;9.43;3.38;;;12.00;99.90;;;;;;5072320;28;20037;-46
2022/06/14 00:59:45;;;;;;;9.85;3.50;;;12.10;99.90;;;;;;5072378;28;20115;-47
2022/06/14 01:02:20;;;;;;;8.98;3.42;;;12.00;99.90;;;;;;5053440;28;20056;-50
2022/06/14 01:04:47;;;;;;;8.32;3.25;;;11.90;99.90;;;;;;5072041;28;20036;-47
2022/06/14 01:07:24;;;;;;;9.27;3.05;;;12.00;99.90;;;;;;5072301;28;20375;-50
2022/06/14 01:09:57;;;;;;;7.78;3.35;;;12.00;99.90;;;;;;5071876;28;20123;-47
2022/06/14 01:12:28;;;;;;;11.05;3.55;;;12.00;99.90;;;;;;5071502;28;20084;-47
2022/06/14 01:15:17;;;;;;;11.70;3.97;;;11.90;99.90;;;;;;5072107;28;20436;-48
2022/06/14 01:17:48;;;;;;;8.23;3.58;;;11.80;99.90;;;;;;5072402;28;20119;-46
2022/06/14 01:20:16;;;;;;;7.90;3.67;;;11.80;99.90;;;;;;5071186;28;20064;-46
2022/06/14 01:22:43;;;;;;;10.25;4.07;;;11.80;99.90;;;;;;5071941;28;20497;-47
2022/06/14 01:25:10;;;;;;;10.63;3.95;;;11.80;99.90;;;;;;5071530;28;20056;-47
2022/06/14 01:27:37;;;;;;;12.00;4.57;;;11.70;99.90;;;;;;5072073;28;20127;-51
2022/06/14 01:30:03;;;;;;;12.73;4.40;;;11.60;99.90;;;;;;5071624;28;20491;-45
2022/06/14 01:32:32;;;;;;;13.85;4.45;;;11.50;99.90;;;;;;5071921;28;20043;-48
2022/06/14 01:35:03;;;;;;;11.82;4.18;;;11.40;99.90;;;;;;5071762;28;20050;-47
2022/06/14 01:37:29;;;;;;;10.60;4.95;;;11.40;99.90;;;;;;5071947;28;20038;-46
2022/06/14 01:39:56;;;;;;;15.50;5.95;;;11.30;99.90;;;;;;5071390;28;20044;-46
2022/06/14 01:42:34;;;;;;;10.07;4.70;;;11.30;99.90;;;;;;5071361;28;20048;-49
2022/06/14 01:45:21;;;;;;;10.88;4.50;;;11.20;99.90;;;;;;5053599;28;20040;-49
2022/06/14 01:47:50;;;;;;;9.45;3.53;;;11.10;99.90;;;;;;5071644;28;20033;-47
2022/06/14 01:53:57;;;;;;;10.82;4.22;;;11.10;99.90;;;;;;5071577;28;20048;-47
2022/06/14 01:56:43;;;;;;;10.27;4.05;;;11.00;99.90;;;;;;5071587;28;20075;-47
2022/06/14 01:59:51;;;;;;;9.20;3.63;;;11.00;99.90;;;;;;5071266;28;20418;-47
2022/06/14 02:02:28;;;;;;;12.93;4.43;;;11.00;99.90;;;;;;5057336;28;20049;-50
2022/06/14 02:05:11;;;;;;;10.18;4.15;;;11.10;99.90;;;;;;5071129;28;20036;-48
2022/06/14 02:07:53;;;;;;;11.07;4.07;;;11.00;99.90;;;;;;5071259;28;20051;-49
2022/06/14 02:10:35;;;;;;;7.30;4.00;;;11.00;99.90;;;;;;5070924;28;20537;-48
2022/06/14 02:13:11;;;;;;;8.80;3.72;;;11.00;99.90;;;;;;5070960;28;20037;-48
2022/06/14 02:15:41;;;;;;;11.98;3.65;;;11.10;99.90;;;;;;5071056;28;20415;-48
2022/06/14 02:18:26;;;;;;;10.18;3.72;;;11.10;99.90;;;;;;5070904;28;20041;-46
2022/06/14 02:21:03;;;;;;;11.77;3.90;;;11.00;99.90;;;;;;5070652;28;20094;-48
2022/06/14 02:23:33;;;;;;;8.95;4.07;;;11.00;99.90;;;;;;5052500;28;20068;-47
2022/06/14 02:26:05;;;;;;;7.72;3.70;;;11.00;99.90;;;;;;5070451;28;20069;-47
2022/06/14 02:28:39;;;;;;;12.70;3.85;;;11.00;99.90;;;;;;5070682;28;20402;-47
2022/06/14 02:31:24;;;;;;;7.15;3.60;;;11.00;99.90;;;;;;5070223;28;20131;-46
2022/06/14 02:34:03;;;;;;;9.85;3.92;;;11.00;99.90;;;;;;5070963;28;20032;-51
2022/06/14 02:36:38;;;;;;;10.45;3.75;;;10.90;99.90;;;;;;5069094;28;20068;-47
2022/06/14 02:39:09;;;;;;;10.85;3.65;;;11.00;99.90;;;;;;5070084;28;20470;-46
2022/06/14 02:41:52;;;;;;;10.18;4.18;;;10.90;99.90;;;;;;5070414;28;20085;-47
2022/06/14 02:44:24;;;;;;;10.15;3.97;;;10.90;99.90;;;;;;5070402;28;20454;-51
2022/06/14 02:47:00;;;;;;;11.85;4.20;;;10.90;99.90;;;;;;5070735;28;20383;-50
2022/06/14 02:49:32;;;;;;;15.82;4.28;;;10.90;99.90;;;;;;5070360;28;20428;-50
2022/06/14 02:52:07;;;;;;;13.00;4.70;;;10.90;99.90;;;;;;5070502;28;20464;-46
2022/06/14 02:54:53;;;;;;;11.93;4.00;;;10.90;99.90;;;;;;5070343;28;20111;-48
2022/06/14 02:57:31;;;;;;;11.77;4.20;;;10.90;99.90;;;;;;5070257;28;20553;-48
2022/06/14 03:00:34;;;;;;;10.93;4.65;;;10.90;99.90;;;;;;5070263;28;20472;-47
2022/06/14 03:03:13;;;;;;;13.93;4.90;;;10.90;99.90;;;;;;5039805;28;20373;-47
2022/06/14 03:06:02;;;;;;;12.80;4.82;;;10.80;99.90;;;;;;5069699;28;20047;-45
2022/06/14 03:08:37;;;;;;;9.20;4.47;;;10.80;99.90;;;;;;5070064;28;20121;-47
2022/06/14 03:11:27;;;;;;;10.75;4.68;;;10.70;99.90;;;;;;5068936;28;20043;-46
2022/06/14 03:14:25;;;;;;;13.02;4.80;;;10.80;99.90;;;;;;5070105;28;20048;-49
2022/06/14 03:17:09;;;;;;;11.18;4.40;;;10.70;99.90;;;;;;5026976;28;20570;-48
2022/06/14 03:19:40;;;;;;;11.18;4.28;;;10.70;99.90;;;;;;5069942;28;20032;-50
2022/06/14 03:22:20;;;;;;;10.75;4.78;;;10.60;99.90;;;;;;5069960;28;20125;-48
2022/06/14 03:24:46;;;;;;;10.93;4.93;;;10.60;99.90;;;;;;5069591;28;20122;-46
2022/06/14 03:27:40;;;;;;;11.25;4.15;;;10.60;99.90;;;;;;5070102;28;20128;-47
2022/06/14 03:30:12;;;;;;;12.20;4.80;;;10.60;99.90;;;;;;5069841;28;20040;-48
2022/06/14 03:33:01;;;;;;;12.25;4.93;;;10.50;99.90;;;;;;5069408;28;20040;-46
2022/06/14 03:35:35;;;;;;;13.73;4.78;;;10.50;99.90;;;;;;5074657;28;20039;-46
2022/06/14 03:38:21;;;;;;;11.68;5.00;;;10.50;99.90;;;;;;5076590;28;20519;-48
2022/06/14 03:40:48;;;;;;;12.90;4.35;;;10.50;99.90;;;;;;5075741;28;20043;-47
2022/06/14 03:43:15;;;;;;;10.07;4.50;;;10.50;99.90;;;;;;5075130;28;20036;-47
2022/06/14 03:46:22;;;;;;;17.02;5.35;;;10.60;99.90;;;;;;5076120;28;20432;-46
2022/06/14 03:49:14;;;;;;;12.70;4.35;;;10.50;99.90;;;;;;5062551;28;20510;-46
2022/06/14 03:52:10;;;;;;;12.73;4.63;;;10.50;99.90;;;;;;5076293;28;20415;-47
2022/06/14 03:54:58;;;;;;;11.13;4.50;;;10.50;99.90;;;;;;5076250;28;20094;-47
2022/06/14 03:58:01;;;;;;;8.57;4.00;;;10.50;99.90;;;;;;5076177;28;20028;-46
2022/06/14 04:00:45;;;;;;;12.75;4.72;;;10.50;99.90;;;;;;5075870;28;20555;-46
2022/06/14 04:03:30;;;;;;;10.65;4.13;;;10.60;99.90;;;;;;5074995;28;20071;-47
2022/06/14 04:06:09;;;;;;;12.70;4.60;;;10.50;99.90;;;;;;5076085;28;20036;-48
2022/06/14 04:08:46;;;;;;;13.05;4.85;;;10.50;99.90;;;;;;5075714;28;20051;-51
2022/06/14 04:11:21;;;;;;;9.93;4.22;;;10.50;99.90;;;;;;5075459;28;20043;-48
2022/06/14 04:14:05;;;;;;;;;;;10.60;99.90;;;;;;5076807;28;20032;-49
2022/06/14 04:16:39;;;;;;;10.90;4.25;;;10.50;99.90;;;;;;5076223;28;20006;-46
2022/06/14 04:19:20;;;;;;;12.93;4.22;;;10.60;99.90;;;;;;5076303;28;20040;-46
2022/06/14 04:22:11;;;;;;;13.50;4.03;;;10.60;99.90;;;;;;5076266;28;20443;-50
2022/06/14 04:24:52;;;;;;;17.00;4.35;;;10.50;99.90;;;;;;5074044;28;20052;-45
2022/06/14 04:27:41;;;;;;;10.20;3.92;;;10.70;99.90;;;;;;5075677;28;20087;-45
2022/06/14 04:30:39;;;;;;;14.88;4.20;;;10.70;99.90;;;;;;5058212;28;20395;-46
2022/06/14 04:33:25;;;;;;;11.40;3.60;;;10.70;99.90;;;;;;5074626;28;20041;-46
2022/06/14 04:36:17;;;;;;;13.52;4.25;;;10.70;99.90;;;;;;5075791;28;20052;-50
2022/06/14 04:38:56;;;;;;;11.45;3.97;;;10.80;99.90;;;;;;5075318;28;20079;-46
2022/06/14 04:41:39;;;;;;;11.20;4.05;;;10.80;99.90;;;;;;5075516;28;20072;-49
2022/06/14 04:44:11;;;;;;;12.52;4.18;;;10.80;99.90;;;;;;5075728;28;20055;-48
2022/06/14 04:46:59;;;;;;;10.38;4.32;;;10.80;99.90;;;;;;5073008;28;20044;-47
2022/06/14 04:49:58;;;;;;;12.32;3.90;;;10.80;99.90;;;;;;5072903;28;20044;-46
2022/06/14 04:52:46;;;;;;;12.20;4.10;;;10.90;99.90;;;;;;5053300;28;20045;-47
2022/06/14 04:55:21;;;;;;;13.00;4.38;;;10.90;99.90;;;;;;5072595;28;20039;-49
2022/06/14 04:57:53;;;;;;;13.00;4.38;;;10.90;99.90;;;;;;5072886;28;20518;-46
2022/06/14 05:00:23;;;;;;;11.02;4.22;;;10.90;99.90;;;;;;5072264;28;20093;-46
2022/06/14 05:02:59;;;;;;;17.42;4.25;;;10.90;99.90;;;;;;5073017;28;20471;-47
2022/06/14 05:05:47;;;;;;;12.82;4.28;;;11.00;99.90;;;;;;5072480;28;20182;-47
2022/06/14 05:08:28;;;;;;;12.68;4.25;;;11.10;99.90;;;;;;5072448;28;20042;-45
2022/06/14 05:11:08;;;;;;;11.02;4.03;;;11.00;99.90;;;;;;5072017;28;20485;-46
2022/06/14 05:13:57;;;;;;;8.90;4.18;;;11.10;99.90;;;;;;5072433;28;20033;-49
2022/06/14 05:16:35;;;;;;;12.80;4.32;;;11.20;99.90;;;;;;5072105;28;20185;-45
2022/06/14 05:19:45;;;;;;;12.45;4.10;;;11.30;99.90;;;;;;5072003;28;20041;-45
2022/06/14 05:22:16;;;;;;;14.15;4.68;;;11.40;99.90;;;;;;5057472;28;20036;-47
2022/06/14 05:24:42;;;;;;;13.30;4.50;;;11.40;99.90;;;;;;5072113;28;20123;-45
2022/06/14 05:27:19;;;;;;;13.55;4.47;;;11.50;99.90;;;;;;5071568;28;20194;-44
2022/06/14 05:30:11;;;;;;;12.23;4.30;;;11.60;99.90;;;;;;5071634;28;20076;-48
2022/06/14 05:32:55;;;;;;;11.18;4.22;;;11.50;99.90;;;;;;5071450;28;20028;-47
2022/06/14 05:35:20;;;;;;;9.27;4.25;;;11.60;99.90;;;;;;5072062;28;20120;-46
2022/06/14 05:38:12;;;;;;;13.70;4.57;;;11.60;99.90;;;;;;5071679;28;20490;-46
2022/06/14 05:40:44;;;;;;;18.92;4.32;;;11.60;99.90;;;;;;5071301;28;20047;-45
2022/06/14 05:43:27;;;;;;;11.50;4.20;;;11.80;99.90;;;;;;5071542;28;20062;-48
2022/06/14 05:45:59;;;;;;;10.98;3.95;;;11.90;99.90;;;;;;5071826;28;20472;-46
2022/06/14 05:48:31;;;;;;;12.90;4.30;;;11.90;99.90;;;;;;5071445;28;20068;-46
2022/06/14 05:51:00;;;;;;;17.05;4.40;;;12.00;99.90;;;;;;5071960;28;20037;-46
2022/06/14 05:53:33;;;;;;;15.05;4.60;;;12.10;99.90;;;;;;5053818;28;20028;-45
2022/06/14 05:56:18;;;;;;;12.85;5.30;;;12.10;99.90;;;;;;5071638;28;20098;-45
2022/06/14 05:58:49;;;;;;;10.35;4.60;;;12.20;99.90;;;;;;5071166;28;20040;-48
2022/06/14 06:01:36;;;;;;;10.52;4.20;;;12.20;99.90;;;;;;5053117;28;20045;-46
2022/06/14 06:04:13;;;;;;;12.57;4.43;;;12.40;99.90;;;;;;5069570;28;20041;-46
2022/06/14 06:06:46;;;;;;;11.40;4.25;;;12.40;99.90;;;;;;5071049;28;20040;-46
2022/06/14 06:09:21;;;;;;;11.35;4.43;;;12.50;99.90;;;;;;5071197;28;20067;-46
2022/06/14 06:11:54;;;;;;;13.55;5.05;;;12.90;99.90;;;;;;5070758;28;20043;-49
2022/06/14 06:14:34;;;;;;;15.88;4.55;;;12.70;99.90;;;;;;5071131;28;20585;-48
2022/06/14 06:17:02;;;;;;;10.95;4.35;;;12.70;99.90;;;;;;5071095;28;20479;-45
2022/06/14 06:19:42;;;;;;;10.82;3.70;;;12.90;99.90;;;;;;5071266;28;20078;-48
2022/06/14 06:22:39;;;;;;;13.73;4.75;;;13.00;99.90;;;;;;5070769;28;20051;-48
2022/06/14 06:25:15;;;;;;;7.55;3.40;;;13.00;99.90;;;;;;5036447;28;20530;-46
2022/06/14 06:27:51;;;;;;;12.75;3.85;;;13.10;99.90;;;;;;5070328;28;20056;-47
2022/06/14 06:30:29;;;;;;;14.65;4.18;;;13.20;99.90;;;;;;5069385;28;20048;-48
2022/06/14 06:32:55;;;;;;;10.02;4.13;;;13.30;99.90;;;;;;5070724;28;20036;-46
2022/06/14 06:35:28;;;;;;;14.60;3.60;;;13.30;99.90;;;;;;5070712;28;20487;-47
2022/06/14 06:38:28;;;;;;;14.05;3.60;;;13.40;99.90;;;;;;5070490;28;20067;-48
2022/06/14 06:43:58;;;;;;;10.15;3.63;;;13.60;99.90;;;;;;5070670;28;20037;-47
2022/06/14 06:46:29;;;;;;;11.48;3.45;;;13.60;99.90;;;;;;5070537;28;20471;-46
2022/06/14 06:48:59;;;;;;;14.02;4.03;;;13.70;99.90;;;;;;5070801;28;20549;-47
2022/06/14 06:51:35;;;;;;;9.73;4.00;;;13.70;99.90;;;;;;5070502;28;20040;-46
2022/06/14 06:54:40;;;;;;;10.27;3.90;;;13.90;99.90;;;;;;5070521;28;20036;-46
2022/06/14 06:57:06;;;;;;;11.13;3.97;;;14.00;99.90;;;;;;5052396;28;20033;-45
2022/06/14 06:59:41;;;;;;;13.45;4.30;;;14.00;99.90;;;;;;5068825;28;20471;-48
2022/06/14 07:02:41;;;;;;;11.90;3.85;;;14.20;99.90;;;;;;5070462;28;20098;-46
2022/06/14 07:05:14;;;;;;;15.80;4.13;;;14.40;99.90;;;;;;5047251;28;20075;-46
2022/06/14 07:08:01;;;;;;;13.05;4.05;;;14.60;99.90;;;;;;5070142;28;20028;-50
2022/06/14 07:10:42;;;;;;;13.05;3.92;;;14.70;99.90;;;;;;5069228;28;20464;-47
2022/06/14 07:13:27;;;;;;;10.95;2.42;;;14.80;99.90;;;;;;5070106;28;20129;-47
2022/06/14 07:16:05;;;;;;;13.07;2.40;;;14.90;99.90;;;;;;5051581;28;20048;-46
2022/06/14 07:18:43;;;;;;;10.27;2.20;;;14.70;99.90;;;;;;5070304;28;20048;-47
2022/06/14 07:21:27;;;;;;;11.13;2.35;;;14.80;99.90;;;;;;5070223;28;20527;-49
2022/06/14 07:24:28;;;;;;;9.35;1.85;;;14.70;99.90;;;;;;5070281;28;20040;-46
2022/06/14 07:26:59;;;;;;;10.30;2.03;;;14.80;99.90;;;;;;5051519;28;20136;-46
2022/06/14 07:29:33;;;;;;;9.02;2.05;;;14.80;99.90;;;;;;5069780;28;20051;-50
2022/06/14 07:32:23;;;;;;;7.57;2.03;;;14.90;99.90;;;;;;5069908;28;20395;-46
2022/06/14 07:34:49;;;;;;;7.13;1.67;;;14.80;99.90;;;;;;5070262;28;20051;-46
2022/06/14 07:37:44;;;;;;;7.00;1.88;;;14.80;99.90;;;;;;5069592;28;20037;-47
2022/06/14 07:40:19;;;;;;;6.85;1.70;;;14.90;99.90;;;;;;5048023;28;20043;-45
2022/06/14 07:43:11;;;;;;;8.60;1.73;;;14.90;99.90;;;;;;5069771;28;20631;-49
2022/06/14 07:45:42;;;;;;;8.38;2.10;;;14.90;99.90;;;;;;5051873;28;20074;-47
2022/06/14 07:48:16;;;;;;;8.77;1.88;;;15.10;99.90;;;;;;5069891;28;20063;-48
2022/06/14 07:51:16;;;;;;;7.60;1.75;;;15.30;99.90;;;;;;5069790;28;20036;-48
2022/06/14 07:53:48;;;;;;;8.43;1.80;;;15.50;99.90;;;;;;5070084;28;20560;-47
2022/06/14 07:56:22;;;;;;;5.43;1.60;;;15.70;99.90;;;;;;5069419;28;20036;-48
2022/06/14 07:59:16;;;;;;;6.65;1.52;;;15.80;99.90;;;;;;5069384;28;20094;-46
2022/06/14 08:01:48;;;;;;;8.87;1.63;;;15.70;99.90;;;;;;5069866;28;20039;-47
2022/06/14 08:04:17;;;;;;;10.60;1.88;;;15.60;99.90;;;;;;5051729;28;20051;-45
2022/06/14 08:06:52;;;;;;;5.97;1.63;;;15.50;99.90;;;;;;5069292;28;20127;-48
2022/06/14 08:09:33;;;;;;;5.82;1.73;;;15.40;99.90;;;;;;5069699;28;20052;-45
2022/06/14 08:12:02;;;;;;;8.15;1.45;;;15.60;99.90;;;;;;5068343;28;20042;-49
2022/06/14 08:14:47;;;;;;;6.05;1.70;;;15.70;99.90;;;;;;5050912;28;20040;-46
2022/06/14 08:17:23;;;;;;;5.80;1.30;;;15.90;99.90;;;;;;5069452;28;20109;-46
2022/06/14 08:19:55;;;;;;;8.52;1.67;;;16.00;99.90;;;;;;5069582;28;20044;-48
2022/06/14 08:22:33;;;;;;;7.57;1.42;;;16.40;99.90;;;;;;5073325;28;20047;-46
2022/06/14 08:25:06;;;;;;;5.38;1.40;;;16.40;99.90;;;;;;5073417;28;20099;-49
2022/06/14 08:27:38;;;;;;;5.78;1.52;;;16.50;99.90;;;;;;5072703;28;20067;-48
2022/06/14 08:30:12;;;;;;;5.82;1.58;;;16.40;99.90;;;;;;5072676;28;20036;-48
2022/06/14 08:32:44;;;;;;;;;;;16.40;99.90;;;;;;5073503;28;20041;-46
2022/06/14 08:35:19;;;;;;;8.80;1.55;;;16.30;99.90;;;;;;5073164;28;19916;-47
2022/06/14 08:38:08;;;;;;;6.50;1.45;;;16.30;99.90;;;;;;5072885;28;20044;-46
2022/06/14 08:41:01;;;;;;;6.57;1.60;;;16.30;99.90;;;;;;5054225;28;20040;-48
2022/06/14 08:43:40;;;;;;;6.22;1.23;;;16.50;99.90;;;;;;5073023;28;20040;-47
2022/06/14 08:46:05;;;;;;;8.77;1.35;;;16.40;99.90;;;;;;5071652;28;20075;-46
2022/06/14 08:48:41;;;;;;;6.47;1.60;;;16.30;99.90;;;;;;5072889;28;20048;-45
2022/06/14 08:51:13;;;;;;;7.20;1.48;;;16.40;99.90;;;;;;5072903;28;20067;-45
2022/06/14 08:54:17;;;;;;;6.63;1.40;;;16.80;99.90;;;;;;5072291;28;20029;-44
2022/06/14 08:57:06;;;;;;;8.50;1.30;;;17.00;99.90;;;;;;5072696;28;20545;-45
2022/06/14 08:59:53;;;;;;;3.45;1.20;;;17.00;99.90;;;;;;5072416;28;20040;-47
2022/06/14 09:02:35;;;;;;;7.82;1.50;;;17.20;99.90;;;;;;5072524;28;20705;-48
2022/06/14 09:05:38;;;;;;;4.28;1.10;;;17.40;99.90;;;;;;5054595;28;20518;-44
2022/06/14 09:08:21;;;;;;;3.95;1.23;;;17.50;99.90;;;;;;5072676;28;20036;-45
2022/06/14 09:11:25;;;;;;;4.82;1.25;;;17.60;99.90;;;;;;5072188;28;20041;-46
2022/06/14 09:14:03;;;;;;;5.90;1.20;;;17.40;99.90;;;;;;5070409;28;20044;-46
2022/06/14 09:16:28;;;;;;;4.32;1.23;;;17.40;99.90;;;;;;5072349;28;20476;-49
2022/06/14 09:19:00;;;;;;;7.25;1.33;;;17.30;99.90;;;;;;5072436;28;20041;-45
2022/06/14 09:21:55;;;;;;;6.07;1.40;;;17.20;99.90;;;;;;5072256;28;20153;-48
2022/06/14 09:24:27;;;;;;;5.82;1.20;;;17.20;99.90;;;;;;5072099;28;20099;-46
2022/06/14 09:27:05;;;;;;;4.40;1.00;;;17.10;99.90;;;;;;5070370;28;20048;-45
2022/06/14 09:29:37;;;;;;;4.47;1.17;;;17.10;99.90;;;;;;5071848;28;20044;-45
2022/06/14 09:32:21;;;;;;;5.10;1.30;;;17.10;99.90;;;;;;5070907;28;20127;-45
2022/06/14 09:35:38;;;;;;;6.35;1.23;;;17.10;99.90;;;;;;5054356;28;20360;-46
2022/06/14 09:38:07;;;;;;;6.03;1.30;;;17.00;99.90;;;;;;5016603;28;20387;-44
2022/06/14 09:40:55;;;;;;;6.10;1.20;;;16.90;99.90;;;;;;5071299;28;20047;-44
2022/06/14 09:43:44;;;;;;;6.72;1.23;;;16.90;99.90;;;;;;5071678;28;20055;-45
2022/06/14 09:46:28;;;;;;;7.05;1.33;;;17.00;99.90;;;;;;5053928;28;20056;-46
2022/06/14 09:49:06;;;;;;;6.13;1.30;;;17.10;99.90;;;;;;5071690;28;20091;-45
2022/06/14 09:51:51;;;;;;;5.78;1.42;;;17.20;99.90;;;;;;5071419;28;20036;-47
2022/06/14 09:54:22;;;;;;;;;;;17.60;99.90;;;;;;5072162;28;20432;-45
2022/06/14 09:57:11;;;;;;;4.65;1.10;;;18.10;99.90;;;;;;5070338;28;19923;-48
2022/06/14 09:59:55;;;;;;;5.60;1.38;;;18.40;99.90;;;;;;5057386;28;20044;-50
2022/06/14 10:02:35;;;;;;;3.20;1.07;;;18.40;99.90;;;;;;5071492;28;20052;-47
2022/06/14 10:05:31;;;;;;;5.88;1.25;;;18.20;99.90;;;;;;5071524;28;20139;-47
2022/06/14 10:08:17;;;;;;;6.57;1.77;;;18.00;99.90;;;;;;5071486;28;20047;-45
2022/06/14 10:10:52;;;;;;;7.35;1.58;;;17.90;99.90;;;;;;5070960;28;20051;-47
2022/06/14 10:14:02;;;;;;;4.32;1.13;;;17.80;99.90;;;;;;5053156;28;20090;-48
2022/06/14 10:16:36;;;;;;;4.45;1.17;;;17.90;99.90;;;;;;5032483;28;20423;-47
2022/06/14 10:19:04;;;;;;;5.18;1.13;;;17.80;99.90;;;;;;5070653;28;20056;-50
2022/06/14 10:21:49;;;;;;;5.60;1.27;;;18.20;99.90;;;;;;5036755;28;20506;-49
2022/06/14 10:24:30;;;;;;;3.75;1.00;;;18.40;99.90;;;;;;5052826;28;20067;-46
2022/06/14 10:30:09;;;;;;;3.10;1.13;;;18.90;99.90;;;;;;5039396;28;20048;-47
2022/06/14 10:33:00;;;;;;;6.10;1.33;;;19.30;99.90;;;;;;5069073;28;20044;-46
2022/06/14 10:35:45;;;;;;;5.53;1.20;;;19.50;99.90;;;;;;5070709;28;20044;-46
2022/06/14 10:38:34;;;;;;;4.82;1.20;;;19.60;99.90;;;;;;5070669;28;20392;-48
2022/06/14 10:41:08;;;;;;;4.28;1.20;;;19.70;99.90;;;;;;5070480;28;20403;-46
2022/06/14 10:43:47;;;;;;;3.00;0.95;;;19.90;99.90;;;;;;5070430;28;20503;-48
2022/06/14 10:46:54;;;;;;;5.22;1.02;;;20.00;99.90;;;;;;5070378;28;20049;-45
2022/06/14 10:49:23;;;;;;;2.80;0.90;;;20.00;99.90;;;;;;5055950;28;20415;-48
2022/06/14 10:51:55;;;;;;;4.05;1.40;;;19.80;99.90;;;;;;5070238;28;20048;-47
2022/06/14 10:54:43;;;;;;;3.72;1.05;;;19.90;99.90;;;;;;5070445;28;20036;-49
2022/06/14 10:57:22;;;;;;;3.33;1.00;;;19.50;99.90;;;;;;5070481;28;20068;-45
2022/06/14 11:00:04;;;;;;;4.68;1.10;;;19.40;99.90;;;;;;5070517;28;20040;-47
2022/06/14 11:03:08;;;;;;;4.63;1.00;;;19.30;99.90;;;;;;5069114;28;20044;-48
2022/06/14 11:06:08;;;;;;;4.30;0.90;;;19.60;99.90;;;;;;5070102;28;20048;-48
2022/06/14 11:08:46;;;;;;;5.43;0.93;;;19.60;99.90;;;;;;5070090;28;20097;-45
2022/06/14 11:11:43;;;;;;;2.58;0.80;;;19.40;99.90;;;;;;5051577;28;20475;-47
2022/06/14 11:14:39;;;;;;;4.47;1.10;;;19.30;99.90;;;;;;5070036;28;20036;-48
2022/06/14 11:17:27;;;;;;;3.50;0.85;;;19.70;99.90;;;;;;5022764;28;20394;-46
2022/06/14 11:20:03;;;;;;;5.38;1.00;;;20.20;99.90;;;;;;5035432;28;20550;-46
2022/06/14 11:22:53;;;;;;;3.83;1.10;;;20.50;99.90;;;;;;5069838;28;20369;-45
2022/06/14 11:25:34;;;;;;;5.05;1.15;;;20.30;99.90;;;;;;5070260;28;20102;-46
2022/06/14 11:28:18;;;;;;;4.50;1.10;;;20.40;99.90;;;;;;5051822;28;20476;-44
2022/06/14 11:31:00;;;;;;;3.45;1.10;;;20.10;99.90;;;;;;5070008;28;20045;-46
2022/06/14 11:33:45;;;;;;;3.05;0.90;;;19.90;99.90;;;;;;5070132;28;20056;-47
2022/06/14 11:36:29;;;;;;;6.65;1.10;;;19.70;99.90;;;;;;5070030;28;20491;-45
2022/06/14 11:39:17;;;;;;;5.97;1.20;;;19.50;99.90;;;;;;5069866;28;20084;-47
2022/06/14 11:41:46;;;;;;;4.55;0.95;;;19.40;99.90;;;;;;5068101;28;20094;-47
2022/06/14 11:44:37;;;;;;;5.28;1.38;;;19.20;99.90;;;;;;5034783;28;20047;-46
2022/06/14 11:47:29;;;;;;;4.22;1.00;;;19.30;99.90;;;;;;5070122;28;20048;-47
2022/06/14 11:50:21;;;;;;;4.63;1.20;;;19.60;99.90;;;;;;5069472;28;20036;-46
2022/06/14 11:53:08;;;;;;;6.45;1.70;;;19.80;99.90;;;;;;5069475;28;20110;-47
2022/06/14 11:56:04;;;;;;;4.63;0.93;;;20.40;99.90;;;;;;5070549;28;20043;-48
2022/06/14 11:58:30;;;;;;;4.18;1.30;;;21.00;99.90;;;;;;4984465;28;20038;-46
2022/06/14 12:01:04;;;;;;;5.30;1.08;;;21.30;99.40;;;;;;5073333;28;20047;-45
2022/06/14 12:03:41;;;;;;;4.90;1.05;;;21.50;99.90;;;;;;5073627;28;20028;-45
2022/06/14 12:06:33;;;;;;;4.85;1.20;;;21.80;98.60;;;;;;5073507;28;20096;-47
2022/06/14 12:09:17;;;;;;;2.70;0.68;;;21.80;98.20;;;;;;5028558;28;20057;-48
2022/06/14 12:12:03;;;;;;;;;;;22.20;97.60;;;;;;5073643;28;20037;-45
2022/06/14 12:14:44;;;;;;;4.50;1.05;;;22.00;98.20;;;;;;5072512;28;20250;-44
2022/06/14 12:17:37;;;;;;;5.57;1.30;;;21.90;97.70;;;;;;5073536;28;20037;-48
2022/06/14 12:20:19;;;;;;;4.32;1.10;;;22.10;97.20;;;;;;5073340;28;20040;-45
2022/06/14 12:23:03;;;;;;;4.60;1.23;;;21.90;98.30;;;;;;5073098;28;20493;-48
2022/06/14 12:29:03;;;;;;;5.85;1.33;;;21.50;97.70;;;;;;5073290;28;20048;-45
2022/06/14 12:31:52;;;;;;;6.45;1.30;;;21.50;98.80;;;;;;5072731;28;20051;-45
2022/06/14 12:34:24;;;;;;;4.78;1.30;;;21.20;98.60;;;;;;5073283;28;20029;-46
2022/06/14 12:36:56;;;;;;;5.40;1.38;;;21.90;97.80;;;;;;5072997;28;20036;-46
2022/06/14 12:39:33;;;;;;;4.13;1.23;;;22.10;95.90;;;;;;5073240;28;20052;-46
2022/06/14 12:42:21;;;;;;;3.97;1.17;;;22.30;97.60;;;;;;5072053;28;20087;-48
2022/06/14 12:44:55;;;;;;;4.00;1.25;;;22.10;96.10;;;;;;5073115;28;20140;-49
2022/06/14 12:47:53;;;;;;;4.93;1.27;;;22.40;96.70;;;;;;5072824;28;20044;-45
2022/06/14 12:50:43;;;;;;;5.30;1.10;;;22.10;95.10;;;;;;5032344;28;20048;-46
2022/06/14 12:53:19;;;;;;;3.33;0.90;;;22.00;95.40;;;;;;5073024;28;20048;-47
2022/06/14 12:55:52;;;;;;;2.30;0.70;;;21.60;96.20;;;;;;5072528;28;20070;-45
2022/06/14 12:58:31;;;;;;;6.57;1.10;;;21.60;96.90;;;;;;5072807;28;20089;-47
2022/06/14 13:01:07;;;;;;;4.60;1.27;;;21.30;96.20;;;;;;5072658;28;20162;-46
2022/06/14 13:03:57;;;;;;;5.07;1.13;;;21.20;97.50;;;;;;5072901;28;20085;-47
2022/06/14 13:06:50;;;;;;;5.22;1.50;;;20.80;97.00;;;;;;5071978;28;20047;-46
2022/06/14 13:09:15;;;;;;;3.33;1.25;;;21.50;97.10;;;;;;5072199;28;20067;-48
2022/06/14 13:11:41;;;;;;;5.50;1.33;;;22.10;95.40;;;;;;5071901;28;20037;-49
2022/06/14 13:14:16;;;;;;;2.65;1.00;;;22.60;95.80;;;;;;5054467;28;20797;-46
2022/06/14 13:17:07;;;;;;;3.33;1.10;;;22.80;94.80;;;;;;5072230;28;20049;-45
2022/06/14 13:19:57;;;;;;;4.22;1.30;;;23.30;95.90;;;;;;5072320;28;20098;-47
2022/06/14 13:22:53;;;;;;;5.28;1.20;;;23.70;93.00;;;;;;5071309;28;20074;-46
2022/06/14 13:25:53;;;;;;;3.15;0.80;;;24.20;94.70;;;;;;5072113;28;20036;-46
2022/06/14 13:28:30;;;;;;;5.15;1.10;;;24.40;92.90;;;;;;5071968;28;20048;-47
2022/06/14 13:31:04;;;;;;;4.03;1.20;;;25.00;94.50;;;;;;5072044;28;20037;-47
2022/06/14 13:33:40;;;;;;;3.67;1.00;;;25.10;92.70;;;;;;5072265;28;20426;-47
2022/06/14 13:36:18;;;;;;;3.65;1.00;;;24.50;92.00;;;;;;5053749;28;20131;-46
2022/06/14 13:38:55;;;;;;;3.67;1.00;;;24.20;91.80;;;;;;5071820;28;20448;-46
2022/06/14 13:42:00;;;;;;;4.10;0.93;;;24.40;92.90;;;;;;5053119;28;20162;-46
2022/06/14 13:44:44;;;;;;;3.28;1.00;;;25.00;91.80;;;;;;5071900;28;20037;-45
2022/06/14 13:47:17;;;;;;;4.15;1.00;;;25.20;90.80;;;;;;5054023;28;20051;-47
2022/06/14 13:49:51;;;;;;;4.95;1.05;;;25.40;91.90;;;;;;5071653;28;20041;-47
2022/06/14 13:52:29;;;;;;;4.93;1.17;;;25.60;91.50;;;;;;5070369;28;20143;-47
2022/06/14 13:55:13;;;;;;;4.82;1.17;;;25.30;89.70;;;;;;5071863;28;20035;-50
2022/06/14 13:58:00;;;;;;;;;;;25.80;90.10;;;;;;5071921;28;20039;-48
2022/06/14 14:01:07;;;;;;;1.92;0.88;;;25.70;88.20;;;;;;5071633;28;19920;-47
2022/06/14 14:03:53;;;;;;;3.83;1.13;;;26.30;91.00;;;;;;5070891;28;20123;-46